sensor_id;sensor_type;location;lat;lon;timestamp;P1;durP1;ratioP1;P2;durP2;ratioP2
18726;SDS011;9492;51.888;5.186;2023-04-03T00:00:05;2.23;;;1.67;;
18726;SDS011;9492;51.888;5.186;2023-04-03T00:02:32;1.97;;;1.33;;
18726;SDS011;9492;51.888;5.186;2023-04-03T00:04:58;2.87;;;1.50;;
18726;SDS011;9492;51.888;5.186;2023-04-03T00:07:24;1.67;;;1.43;;
18726;SDS011;9492;51.888;5.186;2023-04-03T00:09:51;2.00;;;1.40;;
18726;SDS011;9492;51.888;5.186;2023-04-03T00:12:17;1.90;;;1.50;;
18726;SDS011;9492;51.888;5.186;2023-04-03T00:14:43;1.60;;;1.50;;
18726;SDS011;9492;51.888;5.186;2023-04-03T00:17:11;2.03;;;1.60;;
18726;SDS011;9492;51.888;5.186;2023-04-03T00:19:37;2.27;;;1.60;;
18726;SDS011;9492;51.888;5.186;2023-04-03T00:22:07;1.73;;;1.30;;
18726;SDS011;9492;51.888;5.186;2023-04-03T00:24:33;1.87;;;1.77;;
18726;SDS011;9492;51.888;5.186;2023-04-03T00:26:58;1.43;;;1.33;;
18726;SDS011;9492;51.888;5.186;2023-04-03T00:29:24;2.90;;;1.70;;
18726;SDS011;9492;51.888;5.186;2023-04-03T00:31:52;2.10;;;1.60;;
18726;SDS011;9492;51.888;5.186;2023-04-03T00:34:20;1.80;;;1.60;;
18726;SDS011;9492;51.888;5.186;2023-04-03T00:36:46;4.27;;;1.87;;
18726;SDS011;9492;51.888;5.186;2023-04-03T00:39:11;2.57;;;1.60;;
18726;SDS011;9492;51.888;5.186;2023-04-03T00:41:37;1.77;;;1.50;;
18726;SDS011;9492;51.888;5.186;2023-04-03T00:44:20;3.73;;;1.40;;
18726;SDS011;9492;51.888;5.186;2023-04-03T00:46:46;7.17;;;1.60;;
18726;SDS011;9492;51.888;5.186;2023-04-03T00:49:12;1.77;;;1.53;;
18726;SDS011;9492;51.888;5.186;2023-04-03T00:51:38;2.93;;;1.67;;
18726;SDS011;9492;51.888;5.186;2023-04-03T00:54:05;2.37;;;1.70;;
18726;SDS011;9492;51.888;5.186;2023-04-03T00:56:32;2.13;;;1.50;;
18726;SDS011;9492;51.888;5.186;2023-04-03T00:59:02;2.50;;;1.57;;
18726;SDS011;9492;51.888;5.186;2023-04-03T01:01:31;2.90;;;1.43;;
18726;SDS011;9492;51.888;5.186;2023-04-03T01:04:00;2.23;;;1.53;;
18726;SDS011;9492;51.888;5.186;2023-04-03T01:06:28;1.60;;;1.50;;
18726;SDS011;9492;51.888;5.186;2023-04-03T01:08:56;4.13;;;1.63;;
18726;SDS011;9492;51.888;5.186;2023-04-03T01:11:23;2.23;;;1.70;;
18726;SDS011;9492;51.888;5.186;2023-04-03T01:13:49;2.97;;;1.60;;
18726;SDS011;9492;51.888;5.186;2023-04-03T01:16:15;2.77;;;1.47;;
18726;SDS011;9492;51.888;5.186;2023-04-03T01:18:45;1.70;;;1.60;;
18726;SDS011;9492;51.888;5.186;2023-04-03T01:24:09;1.53;;;1.43;;
18726;SDS011;9492;51.888;5.186;2023-04-03T01:26:37;3.10;;;1.63;;
18726;SDS011;9492;51.888;5.186;2023-04-03T01:29:04;3.90;;;1.93;;
18726;SDS011;9492;51.888;5.186;2023-04-03T01:33:57;2.70;;;1.70;;
18726;SDS011;9492;51.888;5.186;2023-04-03T01:36:25;3.20;;;1.97;;
18726;SDS011;9492;51.888;5.186;2023-04-03T01:38:52;3.03;;;1.50;;
18726;SDS011;9492;51.888;5.186;2023-04-03T01:41:19;2.53;;;1.60;;
18726;SDS011;9492;51.888;5.186;2023-04-03T01:43:46;2.53;;;1.33;;
18726;SDS011;9492;51.888;5.186;2023-04-03T01:46:12;2.87;;;1.47;;
18726;SDS011;9492;51.888;5.186;2023-04-03T01:48:38;2.73;;;1.70;;
18726;SDS011;9492;51.888;5.186;2023-04-03T01:51:04;2.50;;;1.30;;
18726;SDS011;9492;51.888;5.186;2023-04-03T01:53:31;1.80;;;1.70;;
18726;SDS011;9492;51.888;5.186;2023-04-03T01:55:56;2.23;;;1.50;;
18726;SDS011;9492;51.888;5.186;2023-04-03T01:58:22;2.03;;;1.40;;
18726;SDS011;9492;51.888;5.186;2023-04-03T02:00:48;2.33;;;1.60;;
18726;SDS011;9492;51.888;5.186;2023-04-03T02:03:14;2.37;;;2.00;;
18726;SDS011;9492;51.888;5.186;2023-04-03T02:05:40;2.20;;;1.80;;
18726;SDS011;9492;51.888;5.186;2023-04-03T02:08:06;3.43;;;1.43;;
18726;SDS011;9492;51.888;5.186;2023-04-03T02:10:33;5.03;;;1.57;;
18726;SDS011;9492;51.888;5.186;2023-04-03T02:12:58;3.80;;;1.87;;
18726;SDS011;9492;51.888;5.186;2023-04-03T02:15:25;2.97;;;1.63;;
18726;SDS011;9492;51.888;5.186;2023-04-03T02:17:51;3.03;;;2.10;;
18726;SDS011;9492;51.888;5.186;2023-04-03T02:20:17;3.40;;;1.60;;
18726;SDS011;9492;51.888;5.186;2023-04-03T02:22:43;2.17;;;1.50;;
18726;SDS011;9492;51.888;5.186;2023-04-03T02:25:10;2.30;;;1.30;;
18726;SDS011;9492;51.888;5.186;2023-04-03T02:27:36;4.53;;;1.90;;
18726;SDS011;9492;51.888;5.186;2023-04-03T02:30:03;2.00;;;1.70;;
18726;SDS011;9492;51.888;5.186;2023-04-03T02:32:30;3.43;;;2.00;;
18726;SDS011;9492;51.888;5.186;2023-04-03T02:34:56;1.60;;;1.50;;
18726;SDS011;9492;51.888;5.186;2023-04-03T02:37:22;2.50;;;1.40;;
18726;SDS011;9492;51.888;5.186;2023-04-03T02:39:48;3.57;;;1.60;;
18726;SDS011;9492;51.888;5.186;2023-04-03T02:42:14;6.17;;;1.97;;
18726;SDS011;9492;51.888;5.186;2023-04-03T02:44:40;1.87;;;1.70;;
18726;SDS011;9492;51.888;5.186;2023-04-03T02:47:06;2.67;;;1.67;;
18726;SDS011;9492;51.888;5.186;2023-04-03T02:49:32;4.33;;;1.50;;
18726;SDS011;9492;51.888;5.186;2023-04-03T02:51:58;2.93;;;1.67;;
18726;SDS011;9492;51.888;5.186;2023-04-03T02:54:28;2.27;;;1.80;;
18726;SDS011;9492;51.888;5.186;2023-04-03T02:56:55;5.67;;;2.00;;
18726;SDS011;9492;51.888;5.186;2023-04-03T02:59:21;2.53;;;1.83;;
18726;SDS011;9492;51.888;5.186;2023-04-03T03:01:47;3.70;;;1.90;;
18726;SDS011;9492;51.888;5.186;2023-04-03T03:04:13;2.80;;;1.50;;
18726;SDS011;9492;51.888;5.186;2023-04-03T03:06:39;3.53;;;2.13;;
18726;SDS011;9492;51.888;5.186;2023-04-03T03:09:06;3.13;;;1.70;;
18726;SDS011;9492;51.888;5.186;2023-04-03T03:11:32;2.20;;;1.50;;
18726;SDS011;9492;51.888;5.186;2023-04-03T03:13:58;4.30;;;1.60;;
18726;SDS011;9492;51.888;5.186;2023-04-03T03:16:24;3.00;;;1.50;;
18726;SDS011;9492;51.888;5.186;2023-04-03T03:18:50;3.53;;;2.13;;
18726;SDS011;9492;51.888;5.186;2023-04-03T03:21:16;2.13;;;1.70;;
18726;SDS011;9492;51.888;5.186;2023-04-03T03:23:43;3.40;;;1.90;;
18726;SDS011;9492;51.888;5.186;2023-04-03T03:26:11;2.67;;;1.80;;
18726;SDS011;9492;51.888;5.186;2023-04-03T03:28:38;3.17;;;1.90;;
18726;SDS011;9492;51.888;5.186;2023-04-03T03:31:05;4.50;;;1.80;;
18726;SDS011;9492;51.888;5.186;2023-04-03T03:33:31;3.00;;;1.77;;
18726;SDS011;9492;51.888;5.186;2023-04-03T03:35:57;3.87;;;2.00;;
18726;SDS011;9492;51.888;5.186;2023-04-03T03:38:23;2.53;;;1.67;;
18726;SDS011;9492;51.888;5.186;2023-04-03T03:40:50;2.00;;;1.57;;
18726;SDS011;9492;51.888;5.186;2023-04-03T03:43:17;4.13;;;1.60;;
18726;SDS011;9492;51.888;5.186;2023-04-03T03:45:43;3.33;;;1.90;;
18726;SDS011;9492;51.888;5.186;2023-04-03T03:48:10;3.90;;;1.77;;
18726;SDS011;9492;51.888;5.186;2023-04-03T03:50:36;1.63;;;1.50;;
18726;SDS011;9492;51.888;5.186;2023-04-03T03:53:02;1.90;;;1.40;;
18726;SDS011;9492;51.888;5.186;2023-04-03T03:55:28;2.10;;;1.57;;
18726;SDS011;9492;51.888;5.186;2023-04-03T03:57:54;3.53;;;1.73;;
18726;SDS011;9492;51.888;5.186;2023-04-03T04:00:20;3.67;;;1.90;;
18726;SDS011;9492;51.888;5.186;2023-04-03T04:02:46;3.60;;;2.00;;
18726;SDS011;9492;51.888;5.186;2023-04-03T04:05:12;4.00;;;1.60;;
18726;SDS011;9492;51.888;5.186;2023-04-03T04:07:38;2.40;;;1.70;;
18726;SDS011;9492;51.888;5.186;2023-04-03T04:10:04;2.30;;;1.63;;
18726;SDS011;9492;51.888;5.186;2023-04-03T04:12:31;2.20;;;1.80;;
18726;SDS011;9492;51.888;5.186;2023-04-03T04:14:57;2.63;;;1.30;;
18726;SDS011;9492;51.888;5.186;2023-04-03T04:17:23;4.13;;;2.00;;
18726;SDS011;9492;51.888;5.186;2023-04-03T04:19:49;2.63;;;1.70;;
18726;SDS011;9492;51.888;5.186;2023-04-03T04:22:15;2.70;;;1.80;;
18726;SDS011;9492;51.888;5.186;2023-04-03T04:24:42;3.00;;;1.87;;
18726;SDS011;9492;51.888;5.186;2023-04-03T04:27:11;4.87;;;2.07;;
18726;SDS011;9492;51.888;5.186;2023-04-03T04:29:37;4.60;;;1.87;;
18726;SDS011;9492;51.888;5.186;2023-04-03T04:32:03;3.97;;;2.17;;
18726;SDS011;9492;51.888;5.186;2023-04-03T04:34:29;6.80;;;2.57;;
18726;SDS011;9492;51.888;5.186;2023-04-03T04:36:55;3.27;;;2.10;;
18726;SDS011;9492;51.888;5.186;2023-04-03T04:39:22;3.23;;;1.77;;
18726;SDS011;9492;51.888;5.186;2023-04-03T04:41:48;5.63;;;2.10;;
18726;SDS011;9492;51.888;5.186;2023-04-03T04:44:14;5.37;;;2.27;;
18726;SDS011;9492;51.888;5.186;2023-04-03T04:46:40;3.77;;;1.70;;
18726;SDS011;9492;51.888;5.186;2023-04-03T04:49:06;3.97;;;1.83;;
18726;SDS011;9492;51.888;5.186;2023-04-03T04:51:32;4.83;;;2.73;;
18726;SDS011;9492;51.888;5.186;2023-04-03T04:53:58;3.03;;;1.80;;
18726;SDS011;9492;51.888;5.186;2023-04-03T04:56:24;4.30;;;1.83;;
18726;SDS011;9492;51.888;5.186;2023-04-03T04:58:51;2.60;;;1.97;;
18726;SDS011;9492;51.888;5.186;2023-04-03T05:01:18;5.60;;;2.03;;
18726;SDS011;9492;51.888;5.186;2023-04-03T05:03:45;4.93;;;2.30;;
18726;SDS011;9492;51.888;5.186;2023-04-03T05:06:12;6.13;;;2.10;;
18726;SDS011;9492;51.888;5.186;2023-04-03T05:08:38;4.63;;;2.00;;
18726;SDS011;9492;51.888;5.186;2023-04-03T05:11:04;4.07;;;1.83;;
18726;SDS011;9492;51.888;5.186;2023-04-03T05:13:31;3.23;;;1.80;;
18726;SDS011;9492;51.888;5.186;2023-04-03T05:15:57;2.87;;;2.00;;
18726;SDS011;9492;51.888;5.186;2023-04-03T05:18:24;5.57;;;2.27;;
18726;SDS011;9492;51.888;5.186;2023-04-03T05:20:53;4.53;;;2.07;;
18726;SDS011;9492;51.888;5.186;2023-04-03T05:23:19;5.73;;;2.03;;
18726;SDS011;9492;51.888;5.186;2023-04-03T05:25:45;6.53;;;2.50;;
18726;SDS011;9492;51.888;5.186;2023-04-03T05:28:11;4.70;;;2.10;;
18726;SDS011;9492;51.888;5.186;2023-04-03T05:30:38;3.90;;;2.27;;
18726;SDS011;9492;51.888;5.186;2023-04-03T05:33:04;4.00;;;2.00;;
18726;SDS011;9492;51.888;5.186;2023-04-03T05:35:31;5.03;;;2.33;;
18726;SDS011;9492;51.888;5.186;2023-04-03T05:37:57;3.83;;;1.90;;
18726;SDS011;9492;51.888;5.186;2023-04-03T05:40:23;2.80;;;2.23;;
18726;SDS011;9492;51.888;5.186;2023-04-03T05:42:49;3.80;;;2.20;;
18726;SDS011;9492;51.888;5.186;2023-04-03T05:45:15;3.73;;;2.40;;
18726;SDS011;9492;51.888;5.186;2023-04-03T05:47:42;4.30;;;2.60;;
18726;SDS011;9492;51.888;5.186;2023-04-03T05:50:08;3.70;;;2.17;;
18726;SDS011;9492;51.888;5.186;2023-04-03T05:52:38;3.20;;;2.30;;
18726;SDS011;9492;51.888;5.186;2023-04-03T05:55:06;2.23;;;1.83;;
18726;SDS011;9492;51.888;5.186;2023-04-03T05:57:32;3.50;;;2.60;;
18726;SDS011;9492;51.888;5.186;2023-04-03T05:59:58;5.67;;;2.30;;
18726;SDS011;9492;51.888;5.186;2023-04-03T06:02:24;5.57;;;2.20;;
18726;SDS011;9492;51.888;5.186;2023-04-03T06:04:51;3.43;;;2.20;;
18726;SDS011;9492;51.888;5.186;2023-04-03T06:07:18;3.87;;;2.43;;
18726;SDS011;9492;51.888;5.186;2023-04-03T06:09:46;4.30;;;2.13;;
18726;SDS011;9492;51.888;5.186;2023-04-03T06:12:12;4.73;;;2.13;;
18726;SDS011;9492;51.888;5.186;2023-04-03T06:14:39;4.67;;;2.03;;
18726;SDS011;9492;51.888;5.186;2023-04-03T06:17:05;3.00;;;2.17;;
18726;SDS011;9492;51.888;5.186;2023-04-03T06:19:33;3.30;;;2.00;;
18726;SDS011;9492;51.888;5.186;2023-04-03T06:21:59;3.80;;;2.63;;
18726;SDS011;9492;51.888;5.186;2023-04-03T06:24:25;3.90;;;2.10;;
18726;SDS011;9492;51.888;5.186;2023-04-03T06:26:52;4.20;;;2.63;;
18726;SDS011;9492;51.888;5.186;2023-04-03T06:29:21;6.33;;;2.20;;
18726;SDS011;9492;51.888;5.186;2023-04-03T06:31:47;4.13;;;2.00;;
18726;SDS011;9492;51.888;5.186;2023-04-03T06:34:13;2.83;;;2.03;;
18726;SDS011;9492;51.888;5.186;2023-04-03T06:36:40;4.83;;;2.23;;
18726;SDS011;9492;51.888;5.186;2023-04-03T06:39:07;4.37;;;2.33;;
18726;SDS011;9492;51.888;5.186;2023-04-03T06:41:34;4.37;;;2.70;;
18726;SDS011;9492;51.888;5.186;2023-04-03T06:44:00;5.50;;;2.30;;
18726;SDS011;9492;51.888;5.186;2023-04-03T06:46:27;2.97;;;2.20;;
18726;SDS011;9492;51.888;5.186;2023-04-03T06:48:53;3.27;;;1.80;;
18726;SDS011;9492;51.888;5.186;2023-04-03T06:53:47;4.50;;;2.10;;
18726;SDS011;9492;51.888;5.186;2023-04-03T06:56:13;2.97;;;1.70;;
18726;SDS011;9492;51.888;5.186;2023-04-03T06:58:39;3.20;;;1.73;;
18726;SDS011;9492;51.888;5.186;2023-04-03T07:01:06;5.30;;;2.30;;
18726;SDS011;9492;51.888;5.186;2023-04-03T07:03:32;2.77;;;1.87;;
18726;SDS011;9492;51.888;5.186;2023-04-03T07:05:58;2.00;;;1.60;;
18726;SDS011;9492;51.888;5.186;2023-04-03T07:08:24;3.17;;;1.97;;
18726;SDS011;9492;51.888;5.186;2023-04-03T07:10:53;5.73;;;1.80;;
18726;SDS011;9492;51.888;5.186;2023-04-03T07:13:19;3.60;;;2.10;;
18726;SDS011;9492;51.888;5.186;2023-04-03T07:15:45;3.57;;;1.87;;
18726;SDS011;9492;51.888;5.186;2023-04-03T07:18:11;4.57;;;1.80;;
18726;SDS011;9492;51.888;5.186;2023-04-03T07:20:38;4.83;;;1.93;;
18726;SDS011;9492;51.888;5.186;2023-04-03T07:23:04;5.20;;;2.30;;
18726;SDS011;9492;51.888;5.186;2023-04-03T07:25:30;2.70;;;1.80;;
18726;SDS011;9492;51.888;5.186;2023-04-03T07:27:56;3.30;;;2.07;;
18726;SDS011;9492;51.888;5.186;2023-04-03T07:30:23;3.47;;;1.77;;
18726;SDS011;9492;51.888;5.186;2023-04-03T07:32:49;3.80;;;2.00;;
18726;SDS011;9492;51.888;5.186;2023-04-03T07:35:15;2.27;;;1.87;;
18726;SDS011;9492;51.888;5.186;2023-04-03T07:37:42;3.10;;;1.63;;
18726;SDS011;9492;51.888;5.186;2023-04-03T07:40:08;9.13;;;3.23;;
18726;SDS011;9492;51.888;5.186;2023-04-03T07:42:35;4.20;;;2.17;;
18726;SDS011;9492;51.888;5.186;2023-04-03T07:45:02;4.93;;;2.00;;
18726;SDS011;9492;51.888;5.186;2023-04-03T07:47:28;3.17;;;1.90;;
18726;SDS011;9492;51.888;5.186;2023-04-03T07:49:54;4.73;;;1.80;;
18726;SDS011;9492;51.888;5.186;2023-04-03T07:52:22;8.03;;;2.43;;
18726;SDS011;9492;51.888;5.186;2023-04-03T07:54:48;6.00;;;2.20;;
18726;SDS011;9492;51.888;5.186;2023-04-03T07:57:14;10.57;;;3.10;;
18726;SDS011;9492;51.888;5.186;2023-04-03T07:59:40;6.17;;;2.97;;
18726;SDS011;9492;51.888;5.186;2023-04-03T08:02:11;4.93;;;2.33;;
18726;SDS011;9492;51.888;5.186;2023-04-03T08:04:37;5.47;;;2.53;;
18726;SDS011;9492;51.888;5.186;2023-04-03T08:07:03;6.13;;;2.40;;
18726;SDS011;9492;51.888;5.186;2023-04-03T08:09:29;7.83;;;2.77;;
18726;SDS011;9492;51.888;5.186;2023-04-03T08:11:57;9.20;;;2.93;;
18726;SDS011;9492;51.888;5.186;2023-04-03T08:14:23;4.83;;;1.70;;
18726;SDS011;9492;51.888;5.186;2023-04-03T08:16:49;4.60;;;1.80;;
18726;SDS011;9492;51.888;5.186;2023-04-03T08:19:15;5.17;;;1.80;;
18726;SDS011;9492;51.888;5.186;2023-04-03T08:21:43;3.93;;;1.73;;
18726;SDS011;9492;51.888;5.186;2023-04-03T08:24:09;4.43;;;1.70;;
18726;SDS011;9492;51.888;5.186;2023-04-03T08:26:35;7.00;;;1.83;;
18726;SDS011;9492;51.888;5.186;2023-04-03T08:29:01;4.57;;;2.10;;
18726;SDS011;9492;51.888;5.186;2023-04-03T08:31:27;3.47;;;1.70;;
18726;SDS011;9492;51.888;5.186;2023-04-03T08:33:53;6.53;;;2.50;;
18726;SDS011;9492;51.888;5.186;2023-04-03T08:36:29;9.60;;;4.27;;
18726;SDS011;9492;51.888;5.186;2023-04-03T08:38:55;6.47;;;3.70;;
18726;SDS011;9492;51.888;5.186;2023-04-03T08:41:34;5.90;;;2.77;;
18726;SDS011;9492;51.888;5.186;2023-04-03T08:46:33;5.53;;;2.37;;
18726;SDS011;9492;51.888;5.186;2023-04-03T08:49:02;7.97;;;3.77;;
18726;SDS011;9492;51.888;5.186;2023-04-03T08:51:28;3.07;;;1.67;;
18726;SDS011;9492;51.888;5.186;2023-04-03T08:54:00;1.60;;;1.30;;
18726;SDS011;9492;51.888;5.186;2023-04-03T08:56:27;3.50;;;1.83;;
18726;SDS011;9492;51.888;5.186;2023-04-03T08:58:55;2.57;;;1.60;;
18726;SDS011;9492;51.888;5.186;2023-04-03T09:01:38;2.03;;;1.17;;
18726;SDS011;9492;51.888;5.186;2023-04-03T09:04:12;1.40;;;1.00;;
18726;SDS011;9492;51.888;5.186;2023-04-03T09:06:38;3.53;;;1.47;;
18726;SDS011;9492;51.888;5.186;2023-04-03T09:11:47;1.80;;;1.17;;
18726;SDS011;9492;51.888;5.186;2023-04-03T09:16:54;5.53;;;1.53;;
18726;SDS011;9492;51.888;5.186;2023-04-03T09:21:58;2.67;;;1.13;;
18726;SDS011;9492;51.888;5.186;2023-04-03T09:24:24;2.23;;;1.10;;
18726;SDS011;9492;51.888;5.186;2023-04-03T09:26:52;1.40;;;0.90;;
18726;SDS011;9492;51.888;5.186;2023-04-03T09:29:20;1.27;;;1.00;;
18726;SDS011;9492;51.888;5.186;2023-04-03T09:31:49;1.03;;;0.93;;
18726;SDS011;9492;51.888;5.186;2023-04-03T09:36:52;1.57;;;0.90;;
18726;SDS011;9492;51.888;5.186;2023-04-03T09:39:22;0.70;;;0.70;;
18726;SDS011;9492;51.888;5.186;2023-04-03T09:44:26;1.00;;;0.87;;
18726;SDS011;9492;51.888;5.186;2023-04-03T09:46:52;3.67;;;1.00;;
18726;SDS011;9492;51.888;5.186;2023-04-03T09:49:18;2.70;;;0.97;;
18726;SDS011;9492;51.888;5.186;2023-04-03T09:51:45;1.70;;;0.90;;
18726;SDS011;9492;51.888;5.186;2023-04-03T09:54:25;0.70;;;0.70;;
18726;SDS011;9492;51.888;5.186;2023-04-03T09:56:52;2.80;;;1.10;;
18726;SDS011;9492;51.888;5.186;2023-04-03T09:59:20;1.57;;;0.83;;
18726;SDS011;9492;51.888;5.186;2023-04-03T10:01:57;1.13;;;0.83;;
18726;SDS011;9492;51.888;5.186;2023-04-03T10:04:27;0.90;;;0.70;;
18726;SDS011;9492;51.888;5.186;2023-04-03T10:07:02;1.50;;;0.90;;
18726;SDS011;9492;51.888;5.186;2023-04-03T10:09:29;1.40;;;1.10;;
18726;SDS011;9492;51.888;5.186;2023-04-03T10:12:00;2.40;;;1.10;;
18726;SDS011;9492;51.888;5.186;2023-04-03T10:14:27;2.10;;;1.03;;
18726;SDS011;9492;51.888;5.186;2023-04-03T10:17:01;1.13;;;0.80;;
18726;SDS011;9492;51.888;5.186;2023-04-03T10:19:36;1.37;;;0.73;;
18726;SDS011;9492;51.888;5.186;2023-04-03T10:27:53;0.63;;;0.63;;
18726;SDS011;9492;51.888;5.186;2023-04-03T10:30:37;1.20;;;1.07;;
18726;SDS011;9492;51.888;5.186;2023-04-03T10:33:19;2.20;;;0.70;;
18726;SDS011;9492;51.888;5.186;2023-04-03T10:35:56;1.80;;;0.90;;
18726;SDS011;9492;51.888;5.186;2023-04-03T10:38:34;1.00;;;0.87;;
18726;SDS011;9492;51.888;5.186;2023-04-03T10:41:12;1.33;;;0.80;;
18726;SDS011;9492;51.888;5.186;2023-04-03T10:43:54;2.23;;;0.90;;
18726;SDS011;9492;51.888;5.186;2023-04-03T10:46:31;1.00;;;0.90;;
18726;SDS011;9492;51.888;5.186;2023-04-03T10:54:01;1.37;;;0.90;;
18726;SDS011;9492;51.888;5.186;2023-04-03T10:59:18;0.77;;;0.73;;
18726;SDS011;9492;51.888;5.186;2023-04-03T11:01:48;1.13;;;0.70;;
18726;SDS011;9492;51.888;5.186;2023-04-03T11:04:16;0.70;;;0.60;;
18726;SDS011;9492;51.888;5.186;2023-04-03T11:09:32;1.17;;;0.60;;
18726;SDS011;9492;51.888;5.186;2023-04-03T11:12:16;1.43;;;0.90;;
18726;SDS011;9492;51.888;5.186;2023-04-03T11:14:43;1.17;;;1.07;;
18726;SDS011;9492;51.888;5.186;2023-04-03T11:17:21;0.80;;;0.80;;
18726;SDS011;9492;51.888;5.186;2023-04-03T11:22:25;1.00;;;0.90;;
18726;SDS011;9492;51.888;5.186;2023-04-03T11:25:02;0.93;;;0.60;;
18726;SDS011;9492;51.888;5.186;2023-04-03T11:27:33;1.10;;;1.00;;
18726;SDS011;9492;51.888;5.186;2023-04-03T11:30:00;3.40;;;1.27;;
18726;SDS011;9492;51.888;5.186;2023-04-03T11:34:53;2.10;;;0.80;;
18726;SDS011;9492;51.888;5.186;2023-04-03T11:37:33;1.00;;;0.70;;
18726;SDS011;9492;51.888;5.186;2023-04-03T11:40:04;1.30;;;0.90;;
18726;SDS011;9492;51.888;5.186;2023-04-03T11:42:33;1.77;;;0.80;;
18726;SDS011;9492;51.888;5.186;2023-04-03T11:50:56;1.13;;;0.80;;
18726;SDS011;9492;51.888;5.186;2023-04-03T12:13:38;2.37;;;0.97;;
18726;SDS011;9492;51.888;5.186;2023-04-03T12:16:06;1.37;;;0.90;;
18726;SDS011;9492;51.888;5.186;2023-04-03T12:18:53;1.50;;;0.77;;
18726;SDS011;9492;51.888;5.186;2023-04-03T12:26:22;2.20;;;0.93;;
18726;SDS011;9492;51.888;5.186;2023-04-03T12:28:50;1.83;;;0.80;;
18726;SDS011;9492;51.888;5.186;2023-04-03T12:31:18;1.37;;;0.87;;
18726;SDS011;9492;51.888;5.186;2023-04-03T12:36:15;1.60;;;1.00;;
18726;SDS011;9492;51.888;5.186;2023-04-03T12:41:30;2.00;;;0.93;;
18726;SDS011;9492;51.888;5.186;2023-04-03T12:46:38;0.70;;;0.70;;
18726;SDS011;9492;51.888;5.186;2023-04-03T12:49:41;8.17;;;1.20;;
18726;SDS011;9492;51.888;5.186;2023-04-03T12:52:00;2.93;;;1.30;;
18726;SDS011;9492;51.888;5.186;2023-04-03T12:57:16;1.47;;;0.90;;
18726;SDS011;9492;51.888;5.186;2023-04-03T12:59:43;1.10;;;1.00;;
18726;SDS011;9492;51.888;5.186;2023-04-03T13:02:27;1.67;;;1.17;;
18726;SDS011;9492;51.888;5.186;2023-04-03T13:04:55;0.97;;;0.97;;
18726;SDS011;9492;51.888;5.186;2023-04-03T13:09:58;2.60;;;0.93;;
18726;SDS011;9492;51.888;5.186;2023-04-03T13:12:25;2.40;;;0.90;;
18726;SDS011;9492;51.888;5.186;2023-04-03T13:14:53;3.73;;;1.10;;
18726;SDS011;9492;51.888;5.186;2023-04-03T13:17:19;2.40;;;1.20;;
18726;SDS011;9492;51.888;5.186;2023-04-03T13:19:46;4.63;;;1.00;;
18726;SDS011;9492;51.888;5.186;2023-04-03T13:24:58;3.30;;;1.40;;
18726;SDS011;9492;51.888;5.186;2023-04-03T13:27:24;1.53;;;1.13;;
18726;SDS011;9492;51.888;5.186;2023-04-03T13:29:53;1.70;;;1.10;;
18726;SDS011;9492;51.888;5.186;2023-04-03T13:32:20;1.37;;;0.90;;
18726;SDS011;9492;51.888;5.186;2023-04-03T13:34:47;2.60;;;1.10;;
18726;SDS011;9492;51.888;5.186;2023-04-03T13:37:24;1.50;;;1.07;;
18726;SDS011;9492;51.888;5.186;2023-04-03T13:39:57;2.67;;;1.40;;
18726;SDS011;9492;51.888;5.186;2023-04-03T13:42:25;2.90;;;1.20;;
18726;SDS011;9492;51.888;5.186;2023-04-03T13:50:54;2.57;;;1.50;;
18726;SDS011;9492;51.888;5.186;2023-04-03T13:53:22;1.33;;;1.23;;
18726;SDS011;9492;51.888;5.186;2023-04-03T13:58:33;1.73;;;1.13;;
18726;SDS011;9492;51.888;5.186;2023-04-03T14:03:40;1.40;;;1.20;;
18726;SDS011;9492;51.888;5.186;2023-04-03T14:06:08;2.37;;;1.20;;
18726;SDS011;9492;51.888;5.186;2023-04-03T14:08:35;3.30;;;1.00;;
18726;SDS011;9492;51.888;5.186;2023-04-03T14:11:01;1.60;;;1.50;;
18726;SDS011;9492;51.888;5.186;2023-04-03T14:13:29;1.67;;;1.47;;
18726;SDS011;9492;51.888;5.186;2023-04-03T14:15:55;3.77;;;1.70;;
18726;SDS011;9492;51.888;5.186;2023-04-03T14:18:21;2.50;;;1.27;;
18726;SDS011;9492;51.888;5.186;2023-04-03T14:20:48;1.33;;;1.10;;
18726;SDS011;9492;51.888;5.186;2023-04-03T14:23:14;2.97;;;1.57;;
18726;SDS011;9492;51.888;5.186;2023-04-03T14:25:40;1.33;;;0.93;;
18726;SDS011;9492;51.888;5.186;2023-04-03T14:28:20;2.70;;;1.17;;
18726;SDS011;9492;51.888;5.186;2023-04-03T14:30:48;3.53;;;1.40;;
18726;SDS011;9492;51.888;5.186;2023-04-03T14:33:16;2.33;;;1.30;;
18726;SDS011;9492;51.888;5.186;2023-04-03T14:35:43;3.07;;;1.63;;
18726;SDS011;9492;51.888;5.186;2023-04-03T14:38:21;1.20;;;1.10;;
18726;SDS011;9492;51.888;5.186;2023-04-03T14:40:47;1.27;;;0.93;;
18726;SDS011;9492;51.888;5.186;2023-04-03T14:43:13;1.53;;;1.43;;
18726;SDS011;9492;51.888;5.186;2023-04-03T14:45:40;1.60;;;1.30;;
18726;SDS011;9492;51.888;5.186;2023-04-03T14:48:06;3.03;;;1.60;;
18726;SDS011;9492;51.888;5.186;2023-04-03T14:50:35;1.13;;;1.10;;
18726;SDS011;9492;51.888;5.186;2023-04-03T14:53:01;3.63;;;1.87;;
18726;SDS011;9492;51.888;5.186;2023-04-03T14:55:27;1.83;;;1.10;;
18726;SDS011;9492;51.888;5.186;2023-04-03T14:57:54;1.60;;;1.30;;
18726;SDS011;9492;51.888;5.186;2023-04-03T15:00:21;2.17;;;1.20;;
18726;SDS011;9492;51.888;5.186;2023-04-03T15:02:47;2.30;;;1.30;;
18726;SDS011;9492;51.888;5.186;2023-04-03T15:05:13;2.13;;;1.20;;
18726;SDS011;9492;51.888;5.186;2023-04-03T15:07:44;3.93;;;1.50;;
18726;SDS011;9492;51.888;5.186;2023-04-03T15:10:22;1.73;;;1.30;;
18726;SDS011;9492;51.888;5.186;2023-04-03T15:12:49;3.20;;;1.40;;
18726;SDS011;9492;51.888;5.186;2023-04-03T15:15:16;3.40;;;1.73;;
18726;SDS011;9492;51.888;5.186;2023-04-03T15:17:42;3.40;;;1.57;;
18726;SDS011;9492;51.888;5.186;2023-04-03T15:20:15;2.73;;;1.13;;
18726;SDS011;9492;51.888;5.186;2023-04-03T15:22:42;1.97;;;1.33;;
18726;SDS011;9492;51.888;5.186;2023-04-03T15:25:09;1.97;;;1.23;;
18726;SDS011;9492;51.888;5.186;2023-04-03T15:27:35;2.10;;;1.50;;
18726;SDS011;9492;51.888;5.186;2023-04-03T15:30:02;1.93;;;1.27;;
18726;SDS011;9492;51.888;5.186;2023-04-03T15:32:28;1.90;;;1.53;;
18726;SDS011;9492;51.888;5.186;2023-04-03T15:34:55;3.63;;;1.57;;
18726;SDS011;9492;51.888;5.186;2023-04-03T15:37:21;3.83;;;1.10;;
18726;SDS011;9492;51.888;5.186;2023-04-03T15:39:47;3.50;;;1.50;;
18726;SDS011;9492;51.888;5.186;2023-04-03T15:42:13;3.63;;;1.30;;
18726;SDS011;9492;51.888;5.186;2023-04-03T15:44:39;2.87;;;1.40;;
18726;SDS011;9492;51.888;5.186;2023-04-03T15:47:05;2.23;;;1.50;;
18726;SDS011;9492;51.888;5.186;2023-04-03T15:49:34;3.47;;;1.33;;
18726;SDS011;9492;51.888;5.186;2023-04-03T15:52:01;5.80;;;1.80;;
18726;SDS011;9492;51.888;5.186;2023-04-03T15:54:27;3.97;;;1.70;;
18726;SDS011;9492;51.888;5.186;2023-04-03T15:56:54;3.87;;;1.40;;
18726;SDS011;9492;51.888;5.186;2023-04-03T15:59:20;3.00;;;2.23;;
18726;SDS011;9492;51.888;5.186;2023-04-03T16:01:47;2.50;;;1.43;;
18726;SDS011;9492;51.888;5.186;2023-04-03T16:04:13;3.17;;;1.40;;
18726;SDS011;9492;51.888;5.186;2023-04-03T16:06:39;2.67;;;1.50;;
18726;SDS011;9492;51.888;5.186;2023-04-03T16:09:06;3.00;;;1.60;;
18726;SDS011;9492;51.888;5.186;2023-04-03T16:11:32;2.80;;;1.47;;
18726;SDS011;9492;51.888;5.186;2023-04-03T16:14:00;3.17;;;1.40;;
18726;SDS011;9492;51.888;5.186;2023-04-03T16:16:26;3.00;;;1.57;;
18726;SDS011;9492;51.888;5.186;2023-04-03T16:18:53;1.80;;;1.37;;
18726;SDS011;9492;51.888;5.186;2023-04-03T16:21:19;2.03;;;1.50;;
18726;SDS011;9492;51.888;5.186;2023-04-03T16:23:45;2.97;;;1.37;;
18726;SDS011;9492;51.888;5.186;2023-04-03T16:26:11;3.77;;;1.47;;
18726;SDS011;9492;51.888;5.186;2023-04-03T16:28:38;3.80;;;1.43;;
18726;SDS011;9492;51.888;5.186;2023-04-03T16:31:04;3.17;;;1.50;;
18726;SDS011;9492;51.888;5.186;2023-04-03T16:33:31;2.83;;;1.70;;
18726;SDS011;9492;51.888;5.186;2023-04-03T16:35:57;3.87;;;1.60;;
18726;SDS011;9492;51.888;5.186;2023-04-03T16:38:23;3.00;;;2.30;;
18726;SDS011;9492;51.888;5.186;2023-04-03T16:40:49;1.70;;;1.40;;
18726;SDS011;9492;51.888;5.186;2023-04-03T16:43:19;2.10;;;1.90;;
18726;SDS011;9492;51.888;5.186;2023-04-03T16:45:45;5.90;;;1.80;;